sensor_id;sensor_type;location;lat;lon;timestamp;P1;durP1;ratioP1;P2;durP2;ratioP2
57856;SDS011;43683;48.650;9.290;2023-06-19T00:02:14;9.55;;;5.80;;
57856;SDS011;43683;48.650;9.290;2023-06-19T00:04:39;8.55;;;5.30;;
57856;SDS011;43683;48.650;9.290;2023-06-19T00:07:05;11.93;;;5.82;;
57856;SDS011;43683;48.650;9.290;2023-06-19T00:09:31;8.32;;;5.55;;
57856;SDS011;43683;48.650;9.290;2023-06-19T00:11:57;7.60;;;5.70;;
57856;SDS011;43683;48.650;9.290;2023-06-19T00:14:24;7.88;;;4.95;;
57856;SDS011;43683;48.650;9.290;2023-06-19T00:16:50;6.63;;;4.72;;
57856;SDS011;43683;48.650;9.290;2023-06-19T00:19:16;7.65;;;4.88;;
57856;SDS011;43683;48.650;9.290;2023-06-19T00:21:42;7.78;;;4.97;;
57856;SDS011;43683;48.650;9.290;2023-06-19T00:24:07;9.85;;;5.07;;
57856;SDS011;43683;48.650;9.290;2023-06-19T00:26:34;8.45;;;4.90;;
57856;SDS011;43683;48.650;9.290;2023-06-19T00:28:59;7.35;;;4.70;;
57856;SDS011;43683;48.650;9.290;2023-06-19T00:31:25;9.00;;;5.55;;
57856;SDS011;43683;48.650;9.290;2023-06-19T00:33:52;6.85;;;4.80;;
57856;SDS011;43683;48.650;9.290;2023-06-19T00:36:18;9.48;;;5.50;;
57856;SDS011;43683;48.650;9.290;2023-06-19T00:38:48;8.70;;;4.93;;
57856;SDS011;43683;48.650;9.290;2023-06-19T00:41:14;8.93;;;5.75;;
57856;SDS011;43683;48.650;9.290;2023-06-19T00:43:41;9.32;;;5.18;;
57856;SDS011;43683;48.650;9.290;2023-06-19T00:46:06;9.45;;;5.40;;
57856;SDS011;43683;48.650;9.290;2023-06-19T00:48:32;8.27;;;5.07;;
57856;SDS011;43683;48.650;9.290;2023-06-19T00:50:59;8.55;;;5.07;;
57856;SDS011;43683;48.650;9.290;2023-06-19T00:53:25;9.98;;;5.60;;
57856;SDS011;43683;48.650;9.290;2023-06-19T00:55:51;7.90;;;5.28;;
57856;SDS011;43683;48.650;9.290;2023-06-19T00:58:19;7.45;;;5.43;;
57856;SDS011;43683;48.650;9.290;2023-06-19T01:00:45;10.50;;;6.10;;
57856;SDS011;43683;48.650;9.290;2023-06-19T01:03:11;8.80;;;5.70;;
57856;SDS011;43683;48.650;9.290;2023-06-19T01:05:36;8.77;;;5.75;;
57856;SDS011;43683;48.650;9.290;2023-06-19T01:10:56;9.77;;;5.30;;
57856;SDS011;43683;48.650;9.290;2023-06-19T01:13:31;7.90;;;4.97;;
57856;SDS011;43683;48.650;9.290;2023-06-19T01:16:03;9.05;;;5.30;;
57856;SDS011;43683;48.650;9.290;2023-06-19T01:18:29;8.73;;;5.20;;
57856;SDS011;43683;48.650;9.290;2023-06-19T01:20:56;7.47;;;5.15;;
57856;SDS011;43683;48.650;9.290;2023-06-19T01:23:33;7.97;;;5.20;;
57856;SDS011;43683;48.650;9.290;2023-06-19T01:25:58;11.13;;;5.82;;
57856;SDS011;43683;48.650;9.290;2023-06-19T01:28:24;8.85;;;5.75;;
57856;SDS011;43683;48.650;9.290;2023-06-19T01:30:51;5.95;;;4.57;;
57856;SDS011;43683;48.650;9.290;2023-06-19T01:33:26;7.82;;;5.05;;
57856;SDS011;43683;48.650;9.290;2023-06-19T01:35:55;6.45;;;4.93;;
57856;SDS011;43683;48.650;9.290;2023-06-19T01:38:23;11.10;;;5.72;;
57856;SDS011;43683;48.650;9.290;2023-06-19T01:40:50;8.13;;;5.55;;
57856;SDS011;43683;48.650;9.290;2023-06-19T01:43:18;6.47;;;4.95;;
57856;SDS011;43683;48.650;9.290;2023-06-19T01:45:44;8.10;;;5.15;;
57856;SDS011;43683;48.650;9.290;2023-06-19T01:48:10;8.52;;;5.25;;
57856;SDS011;43683;48.650;9.290;2023-06-19T01:50:35;7.93;;;5.35;;
57856;SDS011;43683;48.650;9.290;2023-06-19T01:53:01;7.53;;;4.88;;
57856;SDS011;43683;48.650;9.290;2023-06-19T01:55:27;8.88;;;5.90;;
57856;SDS011;43683;48.650;9.290;2023-06-19T01:57:52;9.13;;;5.50;;
57856;SDS011;43683;48.650;9.290;2023-06-19T02:00:18;7.63;;;5.03;;
57856;SDS011;43683;48.650;9.290;2023-06-19T02:02:43;6.82;;;4.80;;
57856;SDS011;43683;48.650;9.290;2023-06-19T02:05:09;9.52;;;4.30;;
57856;SDS011;43683;48.650;9.290;2023-06-19T02:07:35;6.53;;;4.28;;
57856;SDS011;43683;48.650;9.290;2023-06-19T02:10:00;6.78;;;4.50;;
57856;SDS011;43683;48.650;9.290;2023-06-19T02:12:26;7.07;;;4.25;;
57856;SDS011;43683;48.650;9.290;2023-06-19T02:14:52;7.32;;;4.30;;
57856;SDS011;43683;48.650;9.290;2023-06-19T02:17:17;8.48;;;4.15;;
57856;SDS011;43683;48.650;9.290;2023-06-19T02:19:43;7.20;;;4.25;;
57856;SDS011;43683;48.650;9.290;2023-06-19T02:22:08;6.72;;;4.10;;
57856;SDS011;43683;48.650;9.290;2023-06-19T02:24:34;6.68;;;3.90;;
57856;SDS011;43683;48.650;9.290;2023-06-19T02:26:59;6.57;;;4.03;;
57856;SDS011;43683;48.650;9.290;2023-06-19T02:29:27;7.25;;;4.28;;
57856;SDS011;43683;48.650;9.290;2023-06-19T02:31:54;7.53;;;4.68;;
57856;SDS011;43683;48.650;9.290;2023-06-19T02:34:20;8.70;;;5.05;;
57856;SDS011;43683;48.650;9.290;2023-06-19T02:36:46;7.80;;;4.47;;
57856;SDS011;43683;48.650;9.290;2023-06-19T02:39:12;9.13;;;4.75;;
57856;SDS011;43683;48.650;9.290;2023-06-19T02:41:38;7.65;;;4.88;;
57856;SDS011;43683;48.650;9.290;2023-06-19T02:44:03;8.40;;;5.10;;
57856;SDS011;43683;48.650;9.290;2023-06-19T02:46:29;8.18;;;5.00;;
57856;SDS011;43683;48.650;9.290;2023-06-19T02:48:54;6.97;;;4.85;;
57856;SDS011;43683;48.650;9.290;2023-06-19T02:51:20;8.68;;;4.65;;
57856;SDS011;43683;48.650;9.290;2023-06-19T02:53:46;6.18;;;4.45;;
57856;SDS011;43683;48.650;9.290;2023-06-19T02:56:12;6.63;;;4.90;;
57856;SDS011;43683;48.650;9.290;2023-06-19T02:58:38;7.13;;;4.78;;
57856;SDS011;43683;48.650;9.290;2023-06-19T03:01:04;8.52;;;5.18;;
57856;SDS011;43683;48.650;9.290;2023-06-19T03:03:32;7.60;;;4.75;;
57856;SDS011;43683;48.650;9.290;2023-06-19T03:06:02;6.95;;;4.63;;
57856;SDS011;43683;48.650;9.290;2023-06-19T03:08:33;6.57;;;4.40;;
57856;SDS011;43683;48.650;9.290;2023-06-19T03:10:59;7.70;;;4.55;;
57856;SDS011;43683;48.650;9.290;2023-06-19T03:13:24;7.25;;;4.38;;
57856;SDS011;43683;48.650;9.290;2023-06-19T03:15:50;7.20;;;4.53;;
57856;SDS011;43683;48.650;9.290;2023-06-19T03:18:15;8.00;;;4.63;;
57856;SDS011;43683;48.650;9.290;2023-06-19T03:20:41;6.85;;;4.40;;
57856;SDS011;43683;48.650;9.290;2023-06-19T03:23:06;6.82;;;3.90;;
57856;SDS011;43683;48.650;9.290;2023-06-19T03:25:32;6.55;;;4.25;;
57856;SDS011;43683;48.650;9.290;2023-06-19T03:27:58;7.85;;;4.55;;
57856;SDS011;43683;48.650;9.290;2023-06-19T03:30:24;6.50;;;4.60;;
57856;SDS011;43683;48.650;9.290;2023-06-19T03:32:49;6.93;;;4.35;;
57856;SDS011;43683;48.650;9.290;2023-06-19T03:35:15;6.63;;;4.20;;
57856;SDS011;43683;48.650;9.290;2023-06-19T03:37:40;7.53;;;3.95;;
57856;SDS011;43683;48.650;9.290;2023-06-19T03:40:06;7.13;;;4.20;;
57856;SDS011;43683;48.650;9.290;2023-06-19T03:42:34;6.60;;;4.28;;
57856;SDS011;43683;48.650;9.290;2023-06-19T03:44:59;6.55;;;4.63;;
57856;SDS011;43683;48.650;9.290;2023-06-19T03:47:25;6.00;;;4.00;;
57856;SDS011;43683;48.650;9.290;2023-06-19T03:49:51;6.25;;;4.38;;
57856;SDS011;43683;48.650;9.290;2023-06-19T03:52:16;6.63;;;4.18;;
57856;SDS011;43683;48.650;9.290;2023-06-19T03:54:41;7.43;;;4.25;;
57856;SDS011;43683;48.650;9.290;2023-06-19T03:57:07;6.80;;;4.70;;
57856;SDS011;43683;48.650;9.290;2023-06-19T03:59:33;6.22;;;4.75;;
57856;SDS011;43683;48.650;9.290;2023-06-19T04:01:59;7.07;;;4.65;;
57856;SDS011;43683;48.650;9.290;2023-06-19T04:04:24;9.45;;;5.15;;
57856;SDS011;43683;48.650;9.290;2023-06-19T04:06:50;9.85;;;4.93;;
57856;SDS011;43683;48.650;9.290;2023-06-19T04:09:15;7.68;;;4.25;;
57856;SDS011;43683;48.650;9.290;2023-06-19T04:11:41;6.57;;;4.38;;
57856;SDS011;43683;48.650;9.290;2023-06-19T04:14:06;7.40;;;4.63;;
57856;SDS011;43683;48.650;9.290;2023-06-19T04:16:32;6.88;;;4.18;;
57856;SDS011;43683;48.650;9.290;2023-06-19T04:18:58;6.85;;;4.28;;
57856;SDS011;43683;48.650;9.290;2023-06-19T04:21:23;6.85;;;4.40;;
57856;SDS011;43683;48.650;9.290;2023-06-19T04:23:51;6.10;;;4.20;;
57856;SDS011;43683;48.650;9.290;2023-06-19T04:26:16;6.55;;;4.07;;
57856;SDS011;43683;48.650;9.290;2023-06-19T04:28:44;7.10;;;3.90;;
57856;SDS011;43683;48.650;9.290;2023-06-19T04:31:09;7.10;;;3.80;;
57856;SDS011;43683;48.650;9.290;2023-06-19T04:33:35;7.35;;;3.85;;
57856;SDS011;43683;48.650;9.290;2023-06-19T04:36:00;7.00;;;3.65;;
57856;SDS011;43683;48.650;9.290;2023-06-19T04:38:26;5.65;;;3.70;;
57856;SDS011;43683;48.650;9.290;2023-06-19T04:40:51;5.05;;;3.47;;
57856;SDS011;43683;48.650;9.290;2023-06-19T04:43:17;6.53;;;3.55;;
57856;SDS011;43683;48.650;9.290;2023-06-19T04:45:43;5.38;;;3.55;;
57856;SDS011;43683;48.650;9.290;2023-06-19T04:48:09;5.97;;;3.20;;
57856;SDS011;43683;48.650;9.290;2023-06-19T04:50:35;5.70;;;3.00;;
57856;SDS011;43683;48.650;9.290;2023-06-19T04:53:00;3.40;;;2.45;;
57856;SDS011;43683;48.650;9.290;2023-06-19T04:55:26;5.65;;;2.80;;
57856;SDS011;43683;48.650;9.290;2023-06-19T04:57:52;4.72;;;2.53;;
57856;SDS011;43683;48.650;9.290;2023-06-19T05:00:17;4.50;;;2.47;;
57856;SDS011;43683;48.650;9.290;2023-06-19T05:02:48;5.00;;;2.88;;
57856;SDS011;43683;48.650;9.290;2023-06-19T05:05:14;5.10;;;2.85;;
57856;SDS011;43683;48.650;9.290;2023-06-19T05:07:41;4.97;;;2.88;;
57856;SDS011;43683;48.650;9.290;2023-06-19T05:10:07;5.47;;;3.15;;
57856;SDS011;43683;48.650;9.290;2023-06-19T05:12:34;11.05;;;3.38;;
57856;SDS011;43683;48.650;9.290;2023-06-19T05:15:00;4.15;;;2.80;;
57856;SDS011;43683;48.650;9.290;2023-06-19T05:17:26;3.85;;;2.90;;
57856;SDS011;43683;48.650;9.290;2023-06-19T05:19:51;4.47;;;2.40;;
57856;SDS011;43683;48.650;9.290;2023-06-19T05:22:17;4.57;;;2.55;;
57856;SDS011;43683;48.650;9.290;2023-06-19T05:24:43;5.93;;;3.22;;
57856;SDS011;43683;48.650;9.290;2023-06-19T05:27:09;5.05;;;2.92;;
57856;SDS011;43683;48.650;9.290;2023-06-19T05:29:35;4.68;;;3.00;;
57856;SDS011;43683;48.650;9.290;2023-06-19T05:32:01;6.95;;;3.22;;
57856;SDS011;43683;48.650;9.290;2023-06-19T05:34:26;4.50;;;2.85;;
57856;SDS011;43683;48.650;9.290;2023-06-19T05:36:52;6.00;;;3.20;;
57856;SDS011;43683;48.650;9.290;2023-06-19T05:39:18;3.95;;;2.80;;
57856;SDS011;43683;48.650;9.290;2023-06-19T05:41:44;8.48;;;3.53;;
57856;SDS011;43683;48.650;9.290;2023-06-19T05:44:10;4.78;;;3.10;;
57856;SDS011;43683;48.650;9.290;2023-06-19T05:46:40;7.30;;;2.75;;
57856;SDS011;43683;48.650;9.290;2023-06-19T05:49:05;5.68;;;3.25;;
57856;SDS011;43683;48.650;9.290;2023-06-19T05:51:31;5.93;;;2.97;;
57856;SDS011;43683;48.650;9.290;2023-06-19T05:53:56;4.63;;;3.05;;
57856;SDS011;43683;48.650;9.290;2023-06-19T05:56:28;5.40;;;3.38;;
57856;SDS011;43683;48.650;9.290;2023-06-19T05:58:53;5.80;;;2.92;;
57856;SDS011;43683;48.650;9.290;2023-06-19T06:01:19;5.18;;;3.03;;
57856;SDS011;43683;48.650;9.290;2023-06-19T06:03:44;5.60;;;3.00;;
57856;SDS011;43683;48.650;9.290;2023-06-19T06:06:10;7.10;;;3.40;;
57856;SDS011;43683;48.650;9.290;2023-06-19T06:08:36;5.90;;;3.17;;
57856;SDS011;43683;48.650;9.290;2023-06-19T06:11:01;9.13;;;3.00;;
57856;SDS011;43683;48.650;9.290;2023-06-19T06:13:27;4.10;;;2.70;;
57856;SDS011;43683;48.650;9.290;2023-06-19T06:15:52;4.22;;;2.58;;
57856;SDS011;43683;48.650;9.290;2023-06-19T06:18:18;4.63;;;2.58;;
57856;SDS011;43683;48.650;9.290;2023-06-19T06:20:44;4.15;;;2.70;;
57856;SDS011;43683;48.650;9.290;2023-06-19T06:23:10;4.25;;;2.80;;
57856;SDS011;43683;48.650;9.290;2023-06-19T06:25:35;5.95;;;2.85;;
57856;SDS011;43683;48.650;9.290;2023-06-19T06:28:01;5.50;;;2.88;;
57856;SDS011;43683;48.650;9.290;2023-06-19T06:30:26;4.97;;;2.67;;
57856;SDS011;43683;48.650;9.290;2023-06-19T06:32:55;4.55;;;2.50;;
57856;SDS011;43683;48.650;9.290;2023-06-19T06:35:20;4.70;;;2.80;;
57856;SDS011;43683;48.650;9.290;2023-06-19T06:37:46;5.05;;;2.42;;
57856;SDS011;43683;48.650;9.290;2023-06-19T06:40:14;4.97;;;2.55;;
57856;SDS011;43683;48.650;9.290;2023-06-19T06:42:39;3.40;;;2.25;;
57856;SDS011;43683;48.650;9.290;2023-06-19T06:45:05;5.35;;;3.25;;
57856;SDS011;43683;48.650;9.290;2023-06-19T06:47:32;3.70;;;2.13;;
57856;SDS011;43683;48.650;9.290;2023-06-19T06:49:57;3.20;;;2.13;;
57856;SDS011;43683;48.650;9.290;2023-06-19T06:52:23;3.15;;;2.08;;
57856;SDS011;43683;48.650;9.290;2023-06-19T06:54:49;5.18;;;2.20;;
57856;SDS011;43683;48.650;9.290;2023-06-19T06:57:15;3.72;;;2.35;;
57856;SDS011;43683;48.650;9.290;2023-06-19T06:59:41;3.45;;;2.30;;
57856;SDS011;43683;48.650;9.290;2023-06-19T07:02:06;4.82;;;2.38;;
57856;SDS011;43683;48.650;9.290;2023-06-19T07:04:32;5.40;;;2.65;;
57856;SDS011;43683;48.650;9.290;2023-06-19T07:06:57;5.03;;;2.28;;
57856;SDS011;43683;48.650;9.290;2023-06-19T07:09:23;5.10;;;2.20;;
57856;SDS011;43683;48.650;9.290;2023-06-19T07:11:49;5.47;;;2.13;;
57856;SDS011;43683;48.650;9.290;2023-06-19T07:14:14;3.15;;;2.20;;
57856;SDS011;43683;48.650;9.290;2023-06-19T07:16:43;3.10;;;2.03;;
57856;SDS011;43683;48.650;9.290;2023-06-19T07:19:11;5.43;;;2.05;;
57856;SDS011;43683;48.650;9.290;2023-06-19T07:21:37;2.88;;;1.83;;
57856;SDS011;43683;48.650;9.290;2023-06-19T07:24:04;3.45;;;1.77;;
57856;SDS011;43683;48.650;9.290;2023-06-19T07:26:30;2.78;;;1.75;;
57856;SDS011;43683;48.650;9.290;2023-06-19T07:28:55;5.45;;;2.00;;
57856;SDS011;43683;48.650;9.290;2023-06-19T07:31:21;2.95;;;1.90;;
57856;SDS011;43683;48.650;9.290;2023-06-19T07:33:46;2.95;;;1.85;;
57856;SDS011;43683;48.650;9.290;2023-06-19T07:36:12;3.55;;;1.92;;
57856;SDS011;43683;48.650;9.290;2023-06-19T07:38:39;2.58;;;2.00;;
57856;SDS011;43683;48.650;9.290;2023-06-19T07:41:05;3.25;;;2.10;;
57856;SDS011;43683;48.650;9.290;2023-06-19T07:43:32;3.38;;;1.98;;
57856;SDS011;43683;48.650;9.290;2023-06-19T07:45:58;3.65;;;1.90;;
57856;SDS011;43683;48.650;9.290;2023-06-19T07:48:24;5.07;;;2.03;;
57856;SDS011;43683;48.650;9.290;2023-06-19T07:50:49;5.93;;;2.35;;
57856;SDS011;43683;48.650;9.290;2023-06-19T07:53:15;2.50;;;1.92;;
57856;SDS011;43683;48.650;9.290;2023-06-19T07:55:41;6.05;;;1.92;;
57856;SDS011;43683;48.650;9.290;2023-06-19T07:58:06;3.80;;;1.85;;
57856;SDS011;43683;48.650;9.290;2023-06-19T08:00:32;3.03;;;1.90;;
57856;SDS011;43683;48.650;9.290;2023-06-19T08:02:58;2.93;;;2.00;;
57856;SDS011;43683;48.650;9.290;2023-06-19T08:05:23;2.93;;;2.30;;
57856;SDS011;43683;48.650;9.290;2023-06-19T08:07:49;3.17;;;2.10;;
57856;SDS011;43683;48.650;9.290;2023-06-19T08:10:14;2.80;;;1.98;;
57856;SDS011;43683;48.650;9.290;2023-06-19T08:12:43;6.03;;;2.28;;
57856;SDS011;43683;48.650;9.290;2023-06-19T08:15:12;6.22;;;2.10;;
57856;SDS011;43683;48.650;9.290;2023-06-19T08:17:41;2.45;;;1.90;;
57856;SDS011;43683;48.650;9.290;2023-06-19T08:20:07;2.75;;;1.95;;
57856;SDS011;43683;48.650;9.290;2023-06-19T08:22:33;3.88;;;1.85;;
57856;SDS011;43683;48.650;9.290;2023-06-19T08:24:59;2.85;;;1.92;;
57856;SDS011;43683;48.650;9.290;2023-06-19T08:27:25;4.00;;;2.33;;
57856;SDS011;43683;48.650;9.290;2023-06-19T08:29:50;4.73;;;2.30;;
57856;SDS011;43683;48.650;9.290;2023-06-19T08:32:16;4.33;;;2.03;;
57856;SDS011;43683;48.650;9.290;2023-06-19T08:34:42;3.37;;;1.83;;
57856;SDS011;43683;48.650;9.290;2023-06-19T08:37:07;3.07;;;1.90;;
57856;SDS011;43683;48.650;9.290;2023-06-19T08:39:33;2.63;;;1.67;;
57856;SDS011;43683;48.650;9.290;2023-06-19T08:41:59;4.13;;;2.10;;
57856;SDS011;43683;48.650;9.290;2023-06-19T08:44:24;2.03;;;1.60;;
57856;SDS011;43683;48.650;9.290;2023-06-19T08:46:50;3.13;;;1.80;;
57856;SDS011;43683;48.650;9.290;2023-06-19T08:49:16;2.70;;;1.70;;
57856;SDS011;43683;48.650;9.290;2023-06-19T08:51:41;5.30;;;1.87;;
57856;SDS011;43683;48.650;9.290;2023-06-19T08:54:07;2.80;;;1.80;;
57856;SDS011;43683;48.650;9.290;2023-06-19T08:56:33;2.70;;;1.70;;
57856;SDS011;43683;48.650;9.290;2023-06-19T09:01:48;3.55;;;2.03;;
57856;SDS011;43683;48.650;9.290;2023-06-19T09:04:19;4.60;;;1.88;;
57856;SDS011;43683;48.650;9.290;2023-06-19T09:06:50;3.88;;;1.70;;
57856;SDS011;43683;48.650;9.290;2023-06-19T09:09:17;3.10;;;1.70;;
57856;SDS011;43683;48.650;9.290;2023-06-19T09:11:56;2.50;;;1.90;;
57856;SDS011;43683;48.650;9.290;2023-06-19T09:17:10;5.55;;;2.20;;
57856;SDS011;43683;48.650;9.290;2023-06-19T09:19:37;2.67;;;2.00;;
57856;SDS011;43683;48.650;9.290;2023-06-19T09:22:05;2.92;;;1.70;;
57856;SDS011;43683;48.650;9.290;2023-06-19T09:24:33;3.83;;;2.13;;
57856;SDS011;43683;48.650;9.290;2023-06-19T09:27:09;3.67;;;1.90;;
57856;SDS011;43683;48.650;9.290;2023-06-19T09:29:38;5.50;;;2.53;;
57856;SDS011;43683;48.650;9.290;2023-06-19T09:34:39;2.83;;;2.10;;
57856;SDS011;43683;48.650;9.290;2023-06-19T09:37:05;2.57;;;1.80;;
57856;SDS011;43683;48.650;9.290;2023-06-19T09:39:32;3.10;;;2.15;;
57856;SDS011;43683;48.650;9.290;2023-06-19T09:44:26;2.58;;;1.83;;
57856;SDS011;43683;48.650;9.290;2023-06-19T09:46:52;3.03;;;2.10;;
57856;SDS011;43683;48.650;9.290;2023-06-19T09:49:19;5.07;;;1.80;;
57856;SDS011;43683;48.650;9.290;2023-06-19T09:51:50;6.63;;;1.40;;
57856;SDS011;43683;48.650;9.290;2023-06-19T09:54:16;3.13;;;1.20;;
57856;SDS011;43683;48.650;9.290;2023-06-19T09:56:42;1.83;;;1.10;;
57856;SDS011;43683;48.650;9.290;2023-06-19T09:59:08;3.43;;;1.20;;
57856;SDS011;43683;48.650;9.290;2023-06-19T10:01:34;1.77;;;1.25;;
57856;SDS011;43683;48.650;9.290;2023-06-19T10:04:02;1.98;;;1.00;;
57856;SDS011;43683;48.650;9.290;2023-06-19T10:06:29;1.27;;;1.00;;
57856;SDS011;43683;48.650;9.290;2023-06-19T10:08:55;1.20;;;1.10;;
57856;SDS011;43683;48.650;9.290;2023-06-19T10:11:43;1.85;;;1.27;;
57856;SDS011;43683;48.650;9.290;2023-06-19T10:14:16;1.25;;;0.90;;
57856;SDS011;43683;48.650;9.290;2023-06-19T10:16:43;4.88;;;1.40;;
57856;SDS011;43683;48.650;9.290;2023-06-19T10:19:16;3.27;;;1.83;;
57856;SDS011;43683;48.650;9.290;2023-06-19T10:21:47;1.77;;;1.30;;
57856;SDS011;43683;48.650;9.290;2023-06-19T10:24:15;2.47;;;1.33;;
57856;SDS011;43683;48.650;9.290;2023-06-19T10:26:43;2.35;;;1.27;;
57856;SDS011;43683;48.650;9.290;2023-06-19T10:29:19;2.45;;;1.50;;
57856;SDS011;43683;48.650;9.290;2023-06-19T10:31:45;1.77;;;1.20;;
57856;SDS011;43683;48.650;9.290;2023-06-19T10:34:11;3.37;;;1.57;;
57856;SDS011;43683;48.650;9.290;2023-06-19T10:36:37;1.93;;;1.23;;
57856;SDS011;43683;48.650;9.290;2023-06-19T10:39:02;1.80;;;1.40;;
57856;SDS011;43683;48.650;9.290;2023-06-19T10:41:29;2.53;;;1.38;;
57856;SDS011;43683;48.650;9.290;2023-06-19T10:44:03;2.25;;;1.42;;
57856;SDS011;43683;48.650;9.290;2023-06-19T10:46:37;1.20;;;1.10;;
57856;SDS011;43683;48.650;9.290;2023-06-19T10:49:03;2.35;;;1.48;;
57856;SDS011;43683;48.650;9.290;2023-06-19T10:51:31;1.88;;;1.33;;
57856;SDS011;43683;48.650;9.290;2023-06-19T10:53:59;2.63;;;1.45;;
57856;SDS011;43683;48.650;9.290;2023-06-19T10:56:25;1.70;;;1.33;;
57856;SDS011;43683;48.650;9.290;2023-06-19T10:59:00;1.60;;;1.40;;
57856;SDS011;43683;48.650;9.290;2023-06-19T11:04:03;4.03;;;1.60;;
57856;SDS011;43683;48.650;9.290;2023-06-19T11:06:33;2.15;;;1.60;;
57856;SDS011;43683;48.650;9.290;2023-06-19T11:08:59;3.25;;;1.65;;
57856;SDS011;43683;48.650;9.290;2023-06-19T11:11:36;1.38;;;1.27;;
57856;SDS011;43683;48.650;9.290;2023-06-19T11:14:09;2.20;;;1.60;;
57856;SDS011;43683;48.650;9.290;2023-06-19T11:16:38;3.05;;;1.60;;
57856;SDS011;43683;48.650;9.290;2023-06-19T11:19:07;1.98;;;1.50;;
57856;SDS011;43683;48.650;9.290;2023-06-19T11:21:34;3.03;;;1.75;;
57856;SDS011;43683;48.650;9.290;2023-06-19T11:24:10;3.85;;;1.80;;
57856;SDS011;43683;48.650;9.290;2023-06-19T11:26:37;2.42;;;1.60;;
57856;SDS011;43683;48.650;9.290;2023-06-19T11:29:23;2.38;;;1.70;;
57856;SDS011;43683;48.650;9.290;2023-06-19T11:31:51;2.10;;;1.40;;
57856;SDS011;43683;48.650;9.290;2023-06-19T11:34:19;1.42;;;1.30;;
57856;SDS011;43683;48.650;9.290;2023-06-19T11:36:55;2.50;;;1.60;;
57856;SDS011;43683;48.650;9.290;2023-06-19T11:39:21;2.67;;;1.40;;
57856;SDS011;43683;48.650;9.290;2023-06-19T11:41:47;2.97;;;1.60;;
57856;SDS011;43683;48.650;9.290;2023-06-19T11:44:12;2.33;;;1.67;;
57856;SDS011;43683;48.650;9.290;2023-06-19T11:46:38;1.83;;;1.40;;
57856;SDS011;43683;48.650;9.290;2023-06-19T11:49:11;2.40;;;1.50;;
57856;SDS011;43683;48.650;9.290;2023-06-19T11:51:37;1.65;;;1.38;;
57856;SDS011;43683;48.650;9.290;2023-06-19T11:54:07;2.17;;;1.40;;
57856;SDS011;43683;48.650;9.290;2023-06-19T11:56:37;3.13;;;1.90;;
57856;SDS011;43683;48.650;9.290;2023-06-19T11:59:03;1.85;;;1.50;;
57856;SDS011;43683;48.650;9.290;2023-06-19T12:01:30;2.00;;;1.50;;
57856;SDS011;43683;48.650;9.290;2023-06-19T12:03:57;2.50;;;1.70;;
57856;SDS011;43683;48.650;9.290;2023-06-19T12:06:22;3.27;;;1.80;;
57856;SDS011;43683;48.650;9.290;2023-06-19T12:08:48;2.43;;;1.47;;
57856;SDS011;43683;48.650;9.290;2023-06-19T12:11:14;2.03;;;1.60;;
57856;SDS011;43683;48.650;9.290;2023-06-19T12:13:40;1.70;;;1.60;;
57856;SDS011;43683;48.650;9.290;2023-06-19T12:16:06;2.80;;;1.48;;
57856;SDS011;43683;48.650;9.290;2023-06-19T12:18:32;2.65;;;1.75;;
57856;SDS011;43683;48.650;9.290;2023-06-19T12:20:57;3.50;;;1.97;;
57856;SDS011;43683;48.650;9.290;2023-06-19T12:23:23;4.40;;;2.30;;
57856;SDS011;43683;48.650;9.290;2023-06-19T12:25:48;2.47;;;1.70;;
57856;SDS011;43683;48.650;9.290;2023-06-19T12:28:14;2.57;;;1.90;;
57856;SDS011;43683;48.650;9.290;2023-06-19T12:30:43;5.05;;;2.05;;
57856;SDS011;43683;48.650;9.290;2023-06-19T12:33:09;2.30;;;1.83;;
57856;SDS011;43683;48.650;9.290;2023-06-19T12:35:35;4.05;;;2.15;;
57856;SDS011;43683;48.650;9.290;2023-06-19T12:38:06;3.97;;;1.90;;
57856;SDS011;43683;48.650;9.290;2023-06-19T12:40:32;8.63;;;2.20;;
57856;SDS011;43683;48.650;9.290;2023-06-19T12:42:58;2.17;;;1.77;;
57856;SDS011;43683;48.650;9.290;2023-06-19T12:45:23;3.27;;;2.00;;
57856;SDS011;43683;48.650;9.290;2023-06-19T12:47:49;3.33;;;1.87;;
57856;SDS011;43683;48.650;9.290;2023-06-19T12:50:14;2.03;;;1.70;;
57856;SDS011;43683;48.650;9.290;2023-06-19T12:52:40;2.90;;;1.70;;
57856;SDS011;43683;48.650;9.290;2023-06-19T12:55:05;3.17;;;2.10;;
57856;SDS011;43683;48.650;9.290;2023-06-19T12:57:31;2.60;;;1.70;;
57856;SDS011;43683;48.650;9.290;2023-06-19T12:59:57;2.53;;;1.63;;
57856;SDS011;43683;48.650;9.290;2023-06-19T13:02:23;2.77;;;1.57;;
57856;SDS011;43683;48.650;9.290;2023-06-19T13:04:48;2.80;;;1.83;;
57856;SDS011;43683;48.650;9.290;2023-06-19T13:07:14;4.10;;;2.10;;
57856;SDS011;43683;48.650;9.290;2023-06-19T13:09:40;2.80;;;1.95;;
57856;SDS011;43683;48.650;9.290;2023-06-19T13:12:06;2.87;;;2.13;;
57856;SDS011;43683;48.650;9.290;2023-06-19T13:14:32;2.65;;;1.85;;
57856;SDS011;43683;48.650;9.290;2023-06-19T13:16:57;2.83;;;1.73;;
57856;SDS011;43683;48.650;9.290;2023-06-19T13:19:23;2.72;;;1.85;;
57856;SDS011;43683;48.650;9.290;2023-06-19T13:21:49;2.25;;;1.58;;
57856;SDS011;43683;48.650;9.290;2023-06-19T13:24:16;3.83;;;1.80;;
57856;SDS011;43683;48.650;9.290;2023-06-19T13:26:42;3.60;;;1.97;;
57856;SDS011;43683;48.650;9.290;2023-06-19T13:29:08;2.58;;;2.00;;
57856;SDS011;43683;48.650;9.290;2023-06-19T13:31:34;3.08;;;1.95;;
57856;SDS011;43683;48.650;9.290;2023-06-19T13:33:59;3.90;;;1.80;;
57856;SDS011;43683;48.650;9.290;2023-06-19T13:36:25;2.60;;;1.80;;
57856;SDS011;43683;48.650;9.290;2023-06-19T13:38:51;4.03;;;1.63;;
57856;SDS011;43683;48.650;9.290;2023-06-19T13:41:18;2.88;;;2.33;;
57856;SDS011;43683;48.650;9.290;2023-06-19T13:43:43;2.90;;;1.92;;
57856;SDS011;43683;48.650;9.290;2023-06-19T13:46:10;2.95;;;2.10;;
57856;SDS011;43683;48.650;9.290;2023-06-19T13:48:36;2.80;;;1.90;;
57856;SDS011;43683;48.650;9.290;2023-06-19T13:51:02;2.20;;;1.73;;
57856;SDS011;43683;48.650;9.290;2023-06-19T13:53:28;3.63;;;2.08;;
57856;SDS011;43683;48.650;9.290;2023-06-19T13:55:54;3.28;;;2.10;;
57856;SDS011;43683;48.650;9.290;2023-06-19T13:58:20;2.97;;;1.80;;
57856;SDS011;43683;48.650;9.290;2023-06-19T14:00:46;3.25;;;1.98;;
57856;SDS011;43683;48.650;9.290;2023-06-19T14:03:12;4.37;;;2.50;;
57856;SDS011;43683;48.650;9.290;2023-06-19T14:05:38;2.53;;;2.05;;
57856;SDS011;43683;48.650;9.290;2023-06-19T14:08:04;3.67;;;2.10;;
57856;SDS011;43683;48.650;9.290;2023-06-19T14:10:30;2.75;;;2.00;;
57856;SDS011;43683;48.650;9.290;2023-06-19T14:12:55;3.72;;;2.13;;
57856;SDS011;43683;48.650;9.290;2023-06-19T14:15:21;2.80;;;2.03;;
57856;SDS011;43683;48.650;9.290;2023-06-19T14:17:46;3.63;;;2.20;;
57856;SDS011;43683;48.650;9.290;2023-06-19T14:20:12;2.30;;;1.87;;
57856;SDS011;43683;48.650;9.290;2023-06-19T14:22:38;2.60;;;1.90;;
57856;SDS011;43683;48.650;9.290;2023-06-19T14:25:03;2.50;;;1.80;;
57856;SDS011;43683;48.650;9.290;2023-06-19T14:27:29;4.43;;;2.25;;
57856;SDS011;43683;48.650;9.290;2023-06-19T14:29:55;3.03;;;1.92;;
57856;SDS011;43683;48.650;9.290;2023-06-19T14:32:21;4.03;;;2.20;;
57856;SDS011;43683;48.650;9.290;2023-06-19T14:34:48;3.35;;;2.00;;
57856;SDS011;43683;48.650;9.290;2023-06-19T14:37:14;3.15;;;2.13;;
57856;SDS011;43683;48.650;9.290;2023-06-19T14:39:39;2.88;;;2.00;;
57856;SDS011;43683;48.650;9.290;2023-06-19T14:42:05;4.05;;;2.05;;
57856;SDS011;43683;48.650;9.290;2023-06-19T14:44:31;12.90;;;2.67;;
57856;SDS011;43683;48.650;9.290;2023-06-19T14:47:00;3.90;;;2.33;;
57856;SDS011;43683;48.650;9.290;2023-06-19T14:49:25;3.70;;;2.15;;
57856;SDS011;43683;48.650;9.290;2023-06-19T14:51:51;2.87;;;1.80;;
57856;SDS011;43683;48.650;9.290;2023-06-19T14:54:16;3.27;;;2.03;;
57856;SDS011;43683;48.650;9.290;2023-06-19T14:56:43;3.13;;;1.98;;
57856;SDS011;43683;48.650;9.290;2023-06-19T14:59:09;3.72;;;2.22;;
57856;SDS011;43683;48.650;9.290;2023-06-19T15:01:35;4.20;;;2.53;;